Time;durP1;ratioP1;P1;durP2;ratioP2;P2;SDS_P1;SDS_P2;PMS_P1;PMS_P2;Temp;Humidity;BMP_temperature;BMP_pressure;BME280_temperature;BME280_humidity;BME280_pressure;Samples;Min_cycle;Max_cycle;Signal;HPM_P1;HPM_P2
2021/08/05 00:00:14;;;;;;;5.63;2.50;;;;;;;14.55;90.80;95864.91;5032663;28;20048;-72
2021/08/05 00:02:41;;;;;;;4.55;2.30;;;;;;;14.55;90.83;95862.19;5030055;28;20502;-71
2021/08/05 00:05:08;;;;;;;3.78;2.63;;;;;;;14.58;90.34;95858.75;5032669;28;20069;-71
2021/08/05 00:07:34;;;;;;;4.22;2.22;;;;;;;14.53;90.23;95859.00;5027199;28;20049;-71
2021/08/05 00:10:01;;;;;;;5.75;2.70;;;;;;;14.54;90.61;95860.59;5033259;28;20049;-72
2021/08/05 00:12:28;;;;;;;6.50;2.38;;;;;;;14.58;90.64;95861.47;5032671;28;20107;-72
2021/08/05 00:14:56;;;;;;;5.35;2.50;;;;;;;14.56;90.49;95853.63;5033285;28;20053;-72
2021/08/05 00:17:22;;;;;;;4.55;2.22;;;;;;;14.56;90.84;95864.59;5032622;28;20068;-72
2021/08/05 00:19:49;;;;;;;3.50;2.47;;;;;;;14.56;90.94;95858.28;5032931;28;20045;-73
2021/08/05 00:22:15;;;;;;;3.55;2.22;;;;;;;14.53;90.75;95859.81;5032610;28;20136;-71
2021/08/05 00:24:42;;;;;;;4.60;2.22;;;;;;;14.50;90.72;95846.00;5032991;28;20056;-73
2021/08/05 00:27:09;;;;;;;5.88;3.13;;;;;;;14.49;91.17;95847.97;5032350;28;20053;-73
2021/08/05 00:29:35;;;;;;;7.90;3.22;;;;;;;14.54;91.18;95855.13;5032870;28;20041;-71
2021/08/05 00:32:04;;;;;;;7.15;3.35;;;;;;;14.56;91.15;95850.88;5032194;28;20046;-72
2021/08/05 00:34:30;;;;;;;6.47;4.13;;;;;;;14.60;90.81;95850.94;5032867;28;20080;-72
2021/08/05 00:36:57;;;;;;;6.15;4.25;;;;;;;14.58;90.32;95845.03;5032286;28;20041;-71
2021/08/05 00:39:23;;;;;;;8.50;4.10;;;;;;;14.61;90.14;95844.31;5051234;28;20040;-71
2021/08/05 00:41:50;;;;;;;5.75;3.67;;;;;;;14.60;89.72;95839.97;5052339;28;20045;-71
2021/08/05 00:44:16;;;;;;;7.65;3.72;;;;;;;14.58;89.72;95839.56;5052110;28;20041;-72
2021/08/05 00:46:43;;;;;;;7.00;3.88;;;;;;;14.55;90.03;95840.25;5052346;28;20045;-72
2021/08/05 00:49:11;;;;;;;7.97;3.33;;;;;;;14.53;90.58;95848.84;5051855;28;20546;-72
2021/08/05 00:51:37;;;;;;;5.60;3.30;;;;;;;14.52;90.74;95844.53;5044677;28;20053;-72
2021/08/05 00:54:05;;;;;;;7.65;3.97;;;;;;;14.54;90.94;95839.47;5031859;28;20416;-72
2021/08/05 00:56:31;;;;;;;5.15;3.10;;;;;;;14.57;90.67;95835.22;5032350;28;20438;-72
2021/08/05 00:58:58;;;;;;;9.05;4.05;;;;;;;14.62;90.51;95837.69;5031714;28;20072;-71
2021/08/05 01:01:29;;;;;;;5.60;3.08;;;;;;;14.63;90.00;95831.06;5031910;28;20045;-72
2021/08/05 01:03:57;;;;;;;6.88;2.95;;;;;;;14.59;90.10;95841.13;5032109;28;20539;-72
2021/08/05 01:06:37;;;;;;;5.47;2.50;;;;;;;14.56;90.39;95836.38;5031887;28;20492;-72
2021/08/05 01:09:11;;;;;;;5.22;1.90;;;;;;;14.53;90.52;95840.63;5030267;28;20045;-72
2021/08/05 01:11:44;;;;;;;6.30;2.45;;;;;;;14.55;90.80;95829.31;5032161;28;20053;-72
2021/08/05 01:14:16;;;;;;;5.20;2.45;;;;;;;14.58;90.62;95834.06;5031473;28;20049;-72
2021/08/05 01:16:47;;;;;;;4.43;2.30;;;;;;;14.58;90.35;95828.59;5031949;28;20045;-71
2021/08/05 01:19:26;;;;;;;4.05;1.92;;;;;;;14.58;89.85;95831.34;5031371;28;20626;-72
2021/08/05 01:22:00;;;;;;;6.22;1.88;;;;;;;14.52;89.92;95830.03;5031765;28;20050;-72
2021/08/05 01:24:30;;;;;;;3.63;1.92;;;;;;;14.47;89.96;95825.63;5031248;28;20053;-72
2021/08/05 01:27:01;;;;;;;8.75;2.30;;;;;;;14.44;90.27;95829.03;5031576;28;20539;-72
2021/08/05 01:29:28;;;;;;;5.28;2.53;;;;;;;14.45;90.46;95829.81;5031448;28;20056;-72
2021/08/05 01:31:56;;;;;;;6.28;2.92;;;;;;;14.48;90.71;95832.69;5031547;28;20056;-72
2021/08/05 01:34:24;;;;;;;5.95;2.88;;;;;;;14.49;90.83;95825.25;5031189;28;20049;-72
2021/08/05 01:36:52;;;;;;;7.40;3.30;;;;;;;14.52;90.28;95825.34;5031165;28;20061;-72
2021/08/05 01:39:18;;;;;;;4.68;2.95;;;;;;;14.52;90.17;95824.56;5049441;28;20041;-72
2021/08/05 01:41:48;;;;;;;5.88;3.78;;;;;;;14.49;90.17;95825.25;5051429;28;20051;-72
2021/08/05 01:44:17;;;;;;;4.90;3.05;;;;;;;14.49;90.55;95822.50;5050879;28;20118;-72
2021/08/05 01:46:45;;;;;;;5.63;2.80;;;;;;;14.51;90.30;95823.75;5051201;28;20060;-72
2021/08/05 01:49:13;;;;;;;9.45;3.45;;;;;;;14.49;90.44;95819.78;5050718;28;20076;-71
2021/08/05 01:51:41;;;;;;;3.75;2.47;;;;;;;14.51;90.17;95822.94;5043621;28;20056;-71
2021/08/05 01:54:07;;;;;;;6.07;2.40;;;;;;;14.49;89.65;95819.78;5030875;28;20455;-72
2021/08/05 01:56:34;;;;;;;4.28;2.17;;;;;;;14.43;90.02;95819.22;5031306;28;20045;-72
2021/08/05 01:59:00;;;;;;;5.78;2.50;;;;;;;14.39;90.28;95818.34;5031253;28;20053;-72
2021/08/05 02:01:29;;;;;;;5.18;2.60;;;;;;;14.38;90.33;95813.22;5030753;28;20503;-72
2021/08/05 02:04:07;;;;;;;6.40;2.15;;;;;;;14.40;90.76;95810.91;5031189;28;20072;-72
2021/08/05 02:06:39;;;;;;;6.35;2.30;;;;;;;14.41;90.70;95812.50;5030967;28;20045;-71
2021/08/05 02:09:15;;;;;;;7.13;2.33;;;;;;;14.39;90.95;95817.53;5046107;28;20495;-72
2021/08/05 02:11:47;;;;;;;5.45;2.90;;;;;;;14.43;91.13;95812.94;5051071;28;20041;-71
2021/08/05 02:14:16;;;;;;;4.88;2.40;;;;;;;14.46;91.12;95809.47;5050460;28;20040;-71
2021/08/05 02:16:45;;;;;;;5.05;2.63;;;;;;;14.44;91.18;95801.63;5050911;28;20048;-72
2021/08/05 02:19:14;;;;;;;4.35;2.33;;;;;;;14.38;91.19;95813.22;5050517;28;20083;-72
2021/08/05 02:21:42;;;;;;;3.55;1.92;;;;;;;14.33;91.32;95801.38;5042738;28;20085;-72
2021/08/05 02:24:08;;;;;;;3.60;2.35;;;;;;;14.30;91.44;95804.84;5030507;28;20053;-72
2021/08/05 02:26:36;;;;;;;3.70;2.20;;;;;;;14.34;91.56;95802.97;5030864;28;20053;-71
2021/08/05 02:29:02;;;;;;;3.72;1.95;;;;;;;14.35;90.56;95804.56;5030347;28;20496;-71
2021/08/05 02:31:29;;;;;;;6.22;2.30;;;;;;;14.34;90.49;95802.16;5030878;28;20053;-72
2021/08/05 02:33:58;;;;;;;5.70;1.98;;;;;;;14.38;90.87;95807.75;5030853;28;20045;-71
2021/08/05 02:36:25;;;;;;;5.13;2.03;;;;;;;14.34;90.50;95802.16;5030212;28;20049;-71
2021/08/05 02:38:52;;;;;;;3.58;1.92;;;;;;;14.35;90.27;95803.75;5027773;28;20053;-72
2021/08/05 02:41:19;;;;;;;3.78;2.00;;;;;;;14.35;89.66;95801.84;5030157;28;20049;-73
2021/08/05 02:43:46;;;;;;;5.00;1.90;;;;;;;14.34;89.73;95792.00;5030652;28;20050;-72
2021/08/05 02:46:15;;;;;;;3.65;2.08;;;;;;;14.33;89.71;95801.38;5030323;28;20045;-72
2021/08/05 02:48:42;;;;;;;4.15;1.88;;;;;;;14.31;90.31;95798.22;5030395;28;20061;-71
2021/08/05 02:51:11;;;;;;;2.97;1.98;;;;;;;14.33;90.39;95797.84;5030272;28;20072;-72
2021/08/05 02:53:38;;;;;;;5.30;2.40;;;;;;;14.32;90.69;95799.78;5030535;28;20053;-72
2021/08/05 02:56:05;;;;;;;4.00;2.58;;;;;;;14.32;90.98;95794.31;5029935;28;20518;-72
2021/08/05 02:58:32;;;;;;;7.03;3.17;;;;;;;14.36;90.85;95789.72;5030575;28;20053;-72
2021/08/05 03:00:59;;;;;;;6.10;3.55;;;;;;;14.38;90.22;95797.56;5030518;28;20049;-72
2021/08/05 03:03:25;;;;;;;7.93;3.45;;;;;;;14.32;90.16;95794.31;5030058;28;20041;-72
2021/08/05 03:05:52;;;;;;;7.47;4.03;;;;;;;14.30;90.31;95788.41;5030511;28;20046;-72
2021/08/05 03:08:21;;;;;;;6.47;3.85;;;;;;;14.31;90.39;95787.25;5040046;28;20438;-72
2021/08/05 03:10:48;;;;;;;9.52;3.70;;;;;;;14.26;90.37;95784.78;5050320;28;20071;-72
2021/08/05 03:13:14;;;;;;;5.50;3.42;;;;;;;14.25;90.37;95791.41;5049895;28;20044;-71
2021/08/05 03:15:41;;;;;;;6.65;3.33;;;;;;;14.25;90.65;95790.59;5050592;28;20060;-72
2021/08/05 03:18:07;;;;;;;7.57;3.10;;;;;;;14.26;90.87;95797.69;5049852;28;20049;-72
2021/08/05 03:20:34;;;;;;;6.28;3.78;;;;;;;14.27;91.12;95791.06;5051085;28;20053;-72
2021/08/05 03:23:01;;;;;;;6.63;4.03;;;;;;;14.26;91.34;95789.47;5035026;28;20046;-72
2021/08/05 03:25:29;;;;;;;7.68;3.95;;;;;;;14.29;90.98;95789.53;5033725;28;20056;-72
2021/08/05 03:27:55;;;;;;;6.10;3.65;;;;;;;14.26;90.67;95787.53;5033991;28;20050;-72
2021/08/05 03:30:22;;;;;;;7.65;4.05;;;;;;;14.27;91.00;95785.59;5033508;28;20133;-71
2021/08/05 03:32:48;;;;;;;6.75;3.75;;;;;;;14.25;91.32;95791.41;5034073;28;20049;-72
2021/08/05 03:35:15;;;;;;;5.38;3.60;;;;;;;14.22;91.39;95786.63;5033342;28;20045;-72
2021/08/05 03:37:41;;;;;;;8.85;4.38;;;;;;;14.22;91.72;95786.63;5038516;28;20479;-72
2021/08/05 03:40:09;;;;;;;5.80;4.03;;;;;;;14.20;91.28;95788.13;5053338;28;20052;-72
2021/08/05 03:42:36;;;;;;;10.82;4.90;;;;;;;14.23;91.22;95785.50;5053814;28;20048;-71
2021/08/05 03:45:03;;;;;;;6.65;4.70;;;;;;;14.25;91.46;95793.34;5053349;28;20037;-72
2021/08/05 03:47:30;;;;;;;7.45;4.72;;;;;;;14.25;91.56;95796.91;5053582;28;20061;-72
2021/08/05 03:49:56;;;;;;;9.63;5.20;;;;;;;14.25;91.67;95788.69;5053449;28;20411;-72
2021/08/05 03:52:23;;;;;;;8.13;5.63;;;;;;;14.29;91.67;95784.06;5039184;28;20064;-72
2021/08/05 03:54:49;;;;;;;8.80;5.07;;;;;;;14.27;91.32;95786.38;5033539;28;20056;-72
2021/08/05 03:57:16;;;;;;;11.35;5.85;;;;;;;14.31;91.53;95781.78;5033019;28;20045;-72
2021/08/05 03:59:44;;;;;;;9.32;5.60;;;;;;;14.34;91.56;95781.06;5033379;28;20499;-72
2021/08/05 04:02:10;;;;;;;7.75;5.00;;;;;;;14.38;91.44;95783.09;5032790;28;20053;-72
2021/08/05 04:04:37;;;;;;;8.95;5.22;;;;;;;14.33;91.67;95784.16;5033293;28;20057;-71
2021/08/05 04:07:05;;;;;;;8.70;5.15;;;;;;;14.35;91.84;95790.06;5030430;28;20942;-72
2021/08/05 04:09:32;;;;;;;6.88;4.10;;;;;;;14.36;91.81;95784.25;5033273;28;20049;-72
2021/08/05 04:11:58;;;;;;;8.32;3.75;;;;;;;14.35;91.30;95777.19;5033122;28;20046;-71
2021/08/05 04:14:25;;;;;;;6.40;3.25;;;;;;;14.34;91.30;95783.00;5032812;28;20068;-71
2021/08/05 04:16:52;;;;;;;5.75;3.42;;;;;;;14.35;91.33;95782.66;5033266;28;20052;-72
2021/08/05 04:19:19;;;;;;;8.43;3.92;;;;;;;14.31;91.52;95776.31;5032607;28;20049;-72
2021/08/05 04:21:49;;;;;;;7.97;4.28;;;;;;;14.32;91.53;95771.63;5032939;28;20520;-72
2021/08/05 04:24:16;;;;;;;8.77;4.45;;;;;;;14.32;91.41;95783.38;5032596;28;20124;-71
2021/08/05 04:26:42;;;;;;;11.05;5.20;;;;;;;14.29;91.70;95773.09;5032792;28;20041;-72
2021/08/05 04:29:09;;;;;;;15.02;6.43;;;;;;;14.30;92.02;95763.75;5032524;28;20393;-72
2021/08/05 04:31:36;;;;;;;11.98;6.05;;;;;;;14.33;92.45;95763.03;5032741;28;20045;-72
2021/08/05 04:34:03;;;;;;;11.13;6.07;;;;;;;14.38;92.67;95764.72;5031639;28;20050;-72
2021/08/05 04:36:30;;;;;;;11.77;6.20;;;;;;;14.44;92.37;95770.69;5032656;28;20437;-71
2021/08/05 04:38:56;;;;;;;14.85;7.32;;;;;;;14.45;92.61;95764.06;5032675;28;20045;-72
2021/08/05 04:41:23;;;;;;;16.25;7.72;;;;;;;14.46;92.81;95765.66;5032091;28;20504;-71
2021/08/05 04:43:51;;;;;;;14.52;7.85;;;;;;;14.46;92.29;95766.47;5032688;28;20515;-72
2021/08/05 04:46:18;;;;;;;13.80;7.40;;;;;;;14.44;91.83;95763.28;5032251;28;20057;-71
2021/08/05 04:48:44;;;;;;;14.68;7.88;;;;;;;14.44;92.17;95762.47;5032494;28;20056;-71
2021/08/05 04:51:12;;;;;;;14.88;7.70;;;;;;;14.44;92.12;95762.47;5031819;28;20042;-71
2021/08/05 04:53:39;;;;;;;14.20;7.60;;;;;;;14.45;92.27;95758.59;5032427;28;20053;-71
2021/08/05 04:56:05;;;;;;;14.77;8.38;;;;;;;14.43;92.53;95761.69;5031923;28;20045;-74
2021/08/05 04:58:32;;;;;;;20.25;8.40;;;;;;;14.47;92.84;95761.78;5032497;28;20057;-74
2021/08/05 05:00:58;;;;;;;17.48;8.60;;;;;;;14.49;92.69;95760.28;5032105;28;20496;-74
2021/08/05 05:03:25;;;;;;;19.65;9.38;;;;;;;14.45;92.63;95758.59;5031847;28;20041;-74
2021/08/05 05:05:51;;;;;;;18.92;9.23;;;;;;;14.49;92.90;95754.03;5001896;28;20058;-75
2021/08/05 05:08:22;;;;;;;18.63;9.27;;;;;;;14.50;92.85;95752.88;5020686;28;20140;-74
2021/08/05 05:10:49;;;;;;;19.08;8.50;;;;;;;14.50;93.05;95752.88;5032120;28;20054;-73
2021/08/05 05:13:17;;;;;;;20.25;9.05;;;;;;;14.53;93.02;95760.38;5031598;28;20462;-73
2021/08/05 05:15:43;;;;;;;21.33;10.00;;;;;;;14.53;93.08;95760.38;5032193;28;20053;-74
2021/08/05 05:18:12;;;;;;;19.70;9.18;;;;;;;14.57;93.24;95753.84;5031581;28;20137;-74
2021/08/05 05:20:39;;;;;;;24.50;10.93;;;;;;;14.60;93.29;95755.03;5031871;28;20416;-73
2021/08/05 05:23:07;;;;;;;20.15;9.63;;;;;;;14.61;92.88;95751.16;5031322;28;20049;-74
2021/08/05 05:25:36;;;;;;;23.92;10.00;;;;;;;14.59;92.87;95750.72;5031796;28;20549;-75
2021/08/05 05:28:03;;;;;;;21.90;10.55;;;;;;;14.61;92.88;95756.63;5031003;28;20050;-73
2021/08/05 05:30:30;;;;;;;19.45;10.40;;;;;;;14.57;92.87;95755.78;5031543;28;20088;-74
2021/08/05 05:32:56;;;;;;;21.15;9.85;;;;;;;14.58;93.14;95749.16;5031650;28;20439;-74
2021/08/05 05:35:23;;;;;;;17.45;10.07;;;;;;;14.52;92.66;95753.31;5031390;28;20048;-76
2021/08/05 05:37:54;;;;;;;18.98;10.48;;;;;;;14.55;93.17;95752.59;5031575;28;20050;-74
2021/08/05 05:40:21;;;;;;;18.80;10.55;;;;;;;14.56;93.47;95759.66;5031246;28;20049;-74
2021/08/05 05:42:50;;;;;;;19.10;9.25;;;;;;;14.51;93.21;95757.19;5031574;28;20041;-74
2021/08/05 05:45:18;;;;;;;19.42;9.13;;;;;;;14.53;93.29;95760.38;5031040;28;20038;-74
2021/08/05 05:47:45;;;;;;;15.27;8.60;;;;;;;14.48;92.98;95763.41;5031414;28;20046;-74
2021/08/05 05:50:13;;;;;;;14.25;8.75;;;;;;;14.52;93.36;95758.81;5031009;28;20052;-75
2021/08/05 05:52:41;;;;;;;18.10;8.85;;;;;;;14.51;93.60;95757.19;5030660;28;20496;-74
2021/08/05 05:55:08;;;;;;;14.75;8.25;;;;;;;14.57;93.61;95761.25;5031011;28;20068;-73
2021/08/05 05:57:35;;;;;;;15.57;8.02;;;;;;;14.59;93.46;95759.72;5031427;28;20057;-75
2021/08/05 06:00:04;;;;;;;13.85;8.52;;;;;;;14.60;93.37;95766.00;5030722;28;20052;-74
2021/08/05 06:02:31;;;;;;;13.48;8.60;;;;;;;14.63;93.09;95765.31;5030888;28;20496;-74
2021/08/05 06:04:57;;;;;;;14.82;8.35;;;;;;;14.59;93.14;95769.91;5031203;28;20083;-74
2021/08/05 06:07:24;;;;;;;11.98;8.07;;;;;;;14.60;93.28;95766.00;5030634;28;20049;-75
2021/08/05 06:09:51;;;;;;;10.77;7.40;;;;;;;14.61;93.16;95770.31;5031200;28;20041;-74
2021/08/05 06:12:17;;;;;;;8.00;5.85;;;;;;;14.58;92.95;95769.13;5030670;28;20057;-74
2021/08/05 06:14:44;;;;;;;12.77;6.85;;;;;;;14.57;93.03;95773.00;5031144;28;20520;-74
2021/08/05 06:17:12;;;;;;;9.82;6.95;;;;;;;14.54;93.22;95773.72;5030541;28;20049;-76
2021/08/05 06:19:38;;;;;;;10.70;7.22;;;;;;;14.52;92.96;95778.78;5031119;28;20055;-74
2021/08/05 06:22:05;;;;;;;11.45;6.35;;;;;;;14.46;93.03;95771.13;5030635;28;20050;-73
2021/08/05 06:24:31;;;;;;;10.73;6.40;;;;;;;14.37;93.38;95774.09;5031084;28;20052;-73
2021/08/05 06:26:58;;;;;;;9.73;6.45;;;;;;;14.37;93.87;95779.56;5030922;28;20045;-74
2021/08/05 06:29:29;;;;;;;12.00;7.43;;;;;;;14.41;94.03;95779.63;5030546;28;20056;-74
2021/08/05 06:31:56;;;;;;;12.55;7.40;;;;;;;14.45;93.92;95775.03;5030986;28;20180;-75
2021/08/05 06:34:24;;;;;;;12.40;7.20;;;;;;;14.43;93.48;95780.88;5030513;28;20053;-74
2021/08/05 06:36:50;;;;;;;10.95;6.32;;;;;;;14.46;93.79;95782.91;5030674;28;20447;-74
2021/08/05 06:39:18;;;;;;;12.15;6.00;;;;;;;14.43;93.95;95780.06;5030361;28;20065;-74
2021/08/05 06:41:44;;;;;;;8.80;5.50;;;;;;;14.43;94.17;95788.28;5030846;28;20099;-74
2021/08/05 06:44:11;;;;;;;10.80;5.93;;;;;;;14.43;94.23;95788.28;5030457;28;20048;-73
2021/08/05 06:46:38;;;;;;;6.57;4.68;;;;;;;14.45;94.28;95780.50;5030794;28;20080;-74
2021/08/05 06:49:04;;;;;;;12.75;5.93;;;;;;;14.52;94.39;95780.72;5030240;28;20041;-73
2021/08/05 06:51:32;;;;;;;7.20;4.88;;;;;;;14.52;94.36;95780.72;5030724;28;20427;-75
2021/08/05 06:53:59;;;;;;;13.55;6.38;;;;;;;14.56;94.25;95779.66;5030634;28;20076;-74
2021/08/05 06:56:25;;;;;;;10.02;5.85;;;;;;;14.66;94.28;95780.22;5032552;28;20048;-74
2021/08/05 06:58:52;;;;;;;13.18;6.78;;;;;;;14.69;94.10;95779.50;5034603;28;20520;-74
2021/08/05 07:01:18;;;;;;;9.90;5.75;;;;;;;14.76;94.05;95777.72;5034030;28;20050;-73
2021/08/05 07:03:45;;;;;;;10.25;5.97;;;;;;;14.79;93.75;95777.00;5034617;28;20053;-75
2021/08/05 07:06:11;;;;;;;10.55;6.28;;;;;;;14.81;94.15;95782.13;5034071;28;20052;-74
2021/08/05 07:08:39;;;;;;;11.38;7.05;;;;;;;14.80;94.10;95781.31;5034355;28;20393;-74
2021/08/05 07:11:06;;;;;;;12.38;7.50;;;;;;;14.79;94.30;95779.75;5034082;28;20057;-74
2021/08/05 07:13:32;;;;;;;12.80;7.70;;;;;;;14.83;94.80;95775.13;5034347;28;20050;-74
2021/08/05 07:15:59;;;;;;;14.10;8.30;;;;;;;14.83;94.53;95780.63;5034289;28;20045;-74
2021/08/05 07:18:26;;;;;;;13.10;7.80;;;;;;;14.85;94.62;95780.25;5033903;28;20123;-75
2021/08/05 07:20:53;;;;;;;16.30;8.93;;;;;;;14.85;94.56;95777.50;5034207;28;20053;-74
2021/08/05 07:23:19;;;;;;;18.52;9.80;;;;;;;14.86;94.95;95777.16;5033761;28;20092;-74
2021/08/05 07:25:47;;;;;;;16.90;10.85;;;;;;;14.84;94.53;95782.19;5034203;28;20076;-74
2021/08/05 07:28:14;;;;;;;16.10;10.30;;;;;;;14.91;94.10;95786.25;5033663;28;20053;-74
2021/08/05 07:30:41;;;;;;;15.88;9.27;;;;;;;14.93;93.52;95783.94;5034142;28;20049;-74
2021/08/05 07:33:07;;;;;;;15.25;9.73;;;;;;;14.83;93.55;95780.63;5033690;28;20045;-74
2021/08/05 07:35:34;;;;;;;15.23;10.82;;;;;;;14.73;93.94;95781.19;5033985;28;20413;-74
2021/08/05 07:38:00;;;;;;;19.08;10.30;;;;;;;14.70;94.60;95781.09;5033626;28;20511;-75
2021/08/05 07:40:27;;;;;;;19.77;10.95;;;;;;;14.73;94.90;95786.66;5033672;28;20137;-74
2021/08/05 07:42:55;;;;;;;18.92;10.38;;;;;;;14.81;94.83;95785.66;5033632;28;20401;-75
2021/08/05 07:45:21;;;;;;;17.30;10.95;;;;;;;14.83;94.97;95788.84;5033519;28;20068;-75
2021/08/05 07:47:48;;;;;;;22.52;11.82;;;;;;;14.84;94.99;95784.94;5033584;28;20046;-75
2021/08/05 07:50:15;;;;;;;18.88;10.57;;;;;;;14.88;94.77;95785.81;5033394;28;20459;-75
2021/08/05 07:52:42;;;;;;;17.05;9.52;;;;;;;14.87;94.08;95786.94;5033331;28;20041;-75
2021/08/05 07:55:09;;;;;;;14.88;8.00;;;;;;;14.83;93.55;95785.31;5033295;28;20095;-74
2021/08/05 07:57:37;;;;;;;12.25;7.93;;;;;;;14.82;93.43;95787.22;5033676;28;20056;-75
2021/08/05 08:00:07;;;;;;;13.75;9.10;;;;;;;14.83;93.71;95785.31;5033078;28;20483;-75
2021/08/05 08:02:34;;;;;;;11.55;8.48;;;;;;;14.85;93.55;95791.22;5033484;28;20064;-74
2021/08/05 08:05:00;;;;;;;14.57;9.13;;;;;;;14.77;93.15;95790.28;5033470;28;20049;-74
2021/08/05 08:07:27;;;;;;;14.52;8.65;;;;;;;14.80;93.82;95789.56;5031750;28;20432;-76
2021/08/05 08:09:53;;;;;;;20.63;9.80;;;;;;;14.78;93.78;95789.13;5033616;28;20396;-74
2021/08/05 08:12:20;;;;;;;18.75;9.18;;;;;;;14.82;94.51;95784.50;5032784;28;20050;-74
2021/08/05 08:14:46;;;;;;;16.42;9.57;;;;;;;14.88;94.35;95791.31;5033406;28;20056;-74
2021/08/05 08:17:14;;;;;;;13.48;9.43;;;;;;;14.94;94.44;95791.03;5032823;28;20400;-74
2021/08/05 08:19:41;;;;;;;15.48;10.75;;;;;;;14.99;94.58;95793.47;5033417;28;20054;-74
2021/08/05 08:22:09;;;;;;;14.95;9.52;;;;;;;15.02;93.92;95798.22;5032483;28;20045;-74
2021/08/05 08:24:36;;;;;;;14.90;9.70;;;;;;;15.00;93.39;95800.53;5033360;28;20049;-74
2021/08/05 08:27:03;;;;;;;20.58;10.43;;;;;;;15.00;93.56;95800.53;5032632;28;20056;-75
2021/08/05 08:29:29;;;;;;;14.35;10.20;;;;;;;15.03;94.10;95797.06;5033197;28;20054;-74
2021/08/05 08:31:55;;;;;;;14.00;9.23;;;;;;;15.03;93.87;95799.81;5033039;28;20045;-75
2021/08/05 08:34:23;;;;;;;17.23;9.57;;;;;;;15.01;93.91;95794.69;5032691;28;20067;-74
2021/08/05 08:36:50;;;;;;;13.15;8.88;;;;;;;15.11;93.77;95796.88;5032697;28;20050;-75
2021/08/05 08:39:16;;;;;;;17.15;9.23;;;;;;;15.17;93.19;95800.09;5032388;28;20683;-74
2021/08/05 08:41:43;;;;;;;15.15;9.30;;;;;;;15.20;92.73;95799.41;5032804;28;20131;-75
2021/08/05 08:44:12;;;;;;;12.95;8.00;;;;;;;15.20;92.59;95802.16;5032399;28;20053;-74
2021/08/05 08:46:39;;;;;;;19.63;9.60;;;;;;;15.21;92.98;95803.72;5032664;28;20056;-74
2021/08/05 08:49:06;;;;;;;18.17;10.07;;;;;;;15.23;93.31;95795.91;5032301;28;20057;-74
2021/08/05 08:51:35;;;;;;;15.75;9.95;;;;;;;15.28;92.77;95797.56;5032551;28;20519;-75
2021/08/05 08:54:05;;;;;;;13.68;8.52;;;;;;;15.35;92.47;95790.31;5032301;28;20061;-75
2021/08/05 08:56:33;;;;;;;16.35;9.05;;;;;;;15.37;91.88;95787.97;4994449;28;20103;-75
2021/08/05 08:59:00;;;;;;;18.10;9.55;;;;;;;15.38;91.40;95797.78;5032451;28;20077;-75
2021/08/05 09:01:27;;;;;;;14.93;9.55;;;;;;;15.42;91.16;95797.88;5032240;28;20049;-74
2021/08/05 09:03:53;;;;;;;16.45;10.40;;;;;;;15.49;91.70;95803.47;5032307;28;20049;-75
2021/08/05 09:06:20;;;;;;;16.33;10.60;;;;;;;15.64;92.67;95797.13;5031868;28;20045;-74
2021/08/05 09:08:49;;;;;;;14.25;9.88;;;;;;;15.69;91.43;95793.31;5032255;28;20107;-74
2021/08/05 09:11:16;;;;;;;16.13;10.18;;;;;;;15.72;91.19;95800.03;5031758;28;20508;-75
2021/08/05 09:13:42;;;;;;;13.75;8.90;;;;;;;15.69;89.46;95796.03;5032154;28;20050;-74
2021/08/05 09:16:20;;;;;;;12.45;9.15;;;;;;;15.70;88.21;95794.88;5031528;28;20046;-74
2021/08/05 09:18:47;;;;;;;18.13;9.50;;;;;;;15.76;89.69;95793.41;5031691;28;20049;-75
2021/08/05 09:21:17;;;;;;;12.35;9.25;;;;;;;15.83;89.36;95788.06;5031533;28;20057;-76
2021/08/05 09:23:51;;;;;;;11.93;8.75;;;;;;;15.90;88.25;95796.44;5031903;28;20500;-74
2021/08/05 09:26:29;;;;;;;15.32;10.10;;;;;;;16.06;89.19;95795.50;5031519;28;20069;-76
2021/08/05 09:29:10;;;;;;;12.27;9.02;;;;;;;16.11;87.54;95795.22;5032006;28;20080;-76
2021/08/05 09:31:39;;;;;;;13.85;8.93;;;;;;;16.18;88.02;95798.88;4951027;28;20047;-76
2021/08/05 09:34:08;;;;;;;14.07;9.43;;;;;;;16.36;88.41;95793.66;4950526;28;20446;-75
2021/08/05 09:36:36;;;;;;;14.82;8.50;;;;;;;16.55;87.07;95789.22;4951024;28;20058;-76
2021/08/05 09:39:14;;;;;;;14.68;8.07;;;;;;;16.58;85.64;95789.28;5045697;28;20052;-76
2021/08/05 09:41:52;;;;;;;12.13;8.48;;;;;;;16.73;85.64;95782.06;5051458;28;20048;-74
2021/08/05 09:44:18;;;;;;;12.75;8.13;;;;;;;16.91;85.97;95785.84;5051027;28;20052;-75
2021/08/05 09:46:45;;;;;;;16.77;9.45;;;;;;;17.03;85.77;95784.03;5051428;28;20073;-74
2021/08/05 09:49:16;;;;;;;12.23;8.65;;;;;;;17.39;86.74;95797.06;5051024;28;20053;-75
2021/08/05 09:51:43;;;;;;;12.90;9.13;;;;;;;17.96;86.04;95789.44;5009360;28;20055;-74
2021/08/05 09:54:11;;;;;;;12.23;7.93;;;;;;;18.36;81.72;95779.53;4950248;28;20044;-73
2021/08/05 09:56:38;;;;;;;8.05;5.88;;;;;;;18.60;77.91;95785.63;4950592;28;20062;-74
2021/08/05 09:59:09;;;;;;;11.48;6.80;;;;;;;18.92;80.55;95777.56;4950157;28;20058;-74
2021/08/05 10:01:54;;;;;;;11.05;7.20;;;;;;;19.08;80.82;95785.53;4950669;28;20198;-74
2021/08/05 10:04:29;;;;;;;8.38;5.65;;;;;;;19.26;76.06;95769.81;4950267;28;20055;-74
2021/08/05 10:07:03;;;;;;;6.18;5.00;;;;;;;19.34;72.70;95774.22;4957720;28;20054;-75
2021/08/05 10:09:32;;;;;;;9.27;6.05;;;;;;;19.25;73.21;95762.72;5050989;28;20068;-74
2021/08/05 10:12:17;;;;;;;8.63;5.68;;;;;;;19.23;73.45;95770.63;5050936;28;20415;-74
2021/08/05 10:14:46;;;;;;;7.40;5.57;;;;;;;19.31;72.84;95761.16;5050745;28;20056;-74
2021/08/05 10:17:14;;;;;;;9.25;6.10;;;;;;;19.30;71.33;95762.34;5050529;28;20049;-74
2021/08/05 10:19:43;;;;;;;8.57;5.07;;;;;;;19.18;70.86;95762.72;5051209;28;20450;-75
2021/08/05 10:22:11;;;;;;;7.75;5.05;;;;;;;19.06;72.57;95760.31;4990420;28;20050;-75
2021/08/05 10:24:41;;;;;;;6.15;5.18;;;;;;;18.93;71.83;95760.63;4950491;28;20054;-74
2021/08/05 10:27:10;;;;;;;11.07;5.57;;;;;;;18.78;71.84;95765.25;4949788;28;20055;-73
2021/08/05 10:29:39;;;;;;;8.65;5.43;;;;;;;18.62;71.33;95758.44;4949854;28;20059;-76
2021/08/05 10:32:09;;;;;;;10.30;5.43;;;;;;;18.41;74.23;95756.31;4949200;28;20051;-76
2021/08/05 10:34:37;;;;;;;9.60;6.38;;;;;;;18.27;74.96;95765.31;4950062;28;20051;-74
2021/08/05 10:37:06;;;;;;;11.77;6.20;;;;;;;18.29;76.07;95762.94;4962227;28;20054;-76
2021/08/05 10:39:34;;;;;;;7.03;5.60;;;;;;;18.57;75.46;95756.81;5050797;28;20056;-73
2021/08/05 10:42:07;;;;;;;9.48;5.88;;;;;;;18.86;74.84;95746.78;5050633;28;20040;-76
2021/08/05 10:44:34;;;;;;;;;;;;;;;18.83;72.48;95753.06;5051235;28;20045;-74
2021/08/05 10:47:01;;;;;;;8.43;5.00;;;;;;;18.85;71.65;95749.94;5050636;28;19921;-74
2021/08/05 10:49:28;;;;;;;8.70;6.47;;;;;;;18.80;71.49;95748.34;5050576;28;20053;-75
2021/08/05 10:51:55;;;;;;;11.70;6.50;;;;;;;18.78;74.34;95743.19;5000728;28;20533;-74
2021/08/05 10:54:55;;;;;;;7.25;5.88;;;;;;;18.83;74.93;95742.03;4949616;28;20080;-74
2021/08/05 10:57:25;;;;;;;7.78;5.72;;;;;;;18.88;70.37;95736.16;4871490;29;20053;-74
2021/08/05 10:59:59;;;;;;;7.65;6.00;;;;;;;18.83;72.92;95739.28;4871844;29;20072;-74
2021/08/05 11:02:46;;;;;;;11.77;5.05;;;;;;;18.82;72.98;95734.94;4901408;28;20061;-75
2021/08/05 11:05:33;;;;;;;8.35;4.60;;;;;;;18.61;71.70;95746.63;4949424;28;20047;-74
2021/08/05 11:08:24;;;;;;;7.47;4.25;;;;;;;18.63;71.70;95724.16;5001191;28;20053;-75
2021/08/05 11:10:51;;;;;;;9.25;4.30;;;;;;;18.70;74.22;95727.00;5050339;28;20276;-74
2021/08/05 11:13:21;;;;;;;5.75;4.18;;;;;;;19.00;75.03;95726.75;5049998;28;20073;-74
2021/08/05 11:15:52;;;;;;;5.07;3.30;;;;;;;19.12;69.93;95731.16;5050341;28;20071;-75
2021/08/05 11:18:23;;;;;;;8.98;3.63;;;;;;;19.03;69.10;95734.25;5049964;28;20049;-74
2021/08/05 11:21:25;;;;;;;5.72;3.58;;;;;;;19.04;70.74;95733.88;5045524;28;20041;-74
2021/08/05 11:23:52;;;;;;;6.03;3.70;;;;;;;19.13;71.24;95732.72;4949374;28;20047;-76
2021/08/05 11:26:19;;;;;;;5.63;3.65;;;;;;;19.08;68.45;95724.81;4949091;28;20051;-76
2021/08/05 11:28:48;;;;;;;6.45;3.90;;;;;;;18.94;68.24;95728.28;4949620;28;20058;-75
2021/08/05 11:31:27;;;;;;;5.55;3.97;;;;;;;18.81;67.51;95733.38;4949115;28;20039;-75
2021/08/05 11:33:55;;;;;;;6.97;4.15;;;;;;;18.69;69.65;95725.44;4949477;28;20516;-75